Terminal Aerodrome Forecast
Issued by NWS

Home | Current Version | Previous Version | Text Only | Print | Product List | Glossary On
Versions: 1 2 3 4 5 6 7 8 9 10 11 12 13 14
000
FTUS46 KMFR 231800 AAA
TAFLMT
TAF AMD
KLMT 231858Z 2319/2418 17015KT P6SM -RA SCT020 BKN040 OVC060
     FM232100 21010KT 5SM RA BR SCT010 BKN020 OVC040
     FM240300 16005KT 3SM -RA BR SCT007 BKN015 OVC030=

USA.gov is the U.S. government's official web portal to all federal, state and local government web resources and services.